This is the latest recevied weather packets stored in our database for station/object SQ5OUZ-8. If no packets are shown the sender has not sent any weather packets the latest 10 day(s).
| Time | Temp. | Humidity | Pressure | Rain* | Wind** | Luminosity | Snow |
|---|---|---|---|---|---|---|---|
| 1777782742 | 12.78° C | 59% | 1021 hPa | - | - | - | - |
| 1777781580 | 12.22° C | 60% | 1021 hPa | - | - | - | - |
| 1777780383 | 11.67° C | 62% | 1021 hPa | - | - | - | - |
| 1777779411 | 11.67° C | 62% | 1020 hPa | - | - | - | - |
| 1777778328 | 11.67° C | 62% | 1020 hPa | - | - | - | - |
| 1777777139 | 11.67° C | 63% | 1020 hPa | - | - | - | - |
| 1777776072 | 11.67° C | 62% | 1020 hPa | - | - | - | - |
| 1777774987 | 12.22° C | 61% | 1020 hPa | - | - | - | - |
| 1777773925 | 12.22° C | 60% | 1020 hPa | - | - | - | - |
| 1777772769 | 12.78° C | 59% | 1020 hPa | - | - | - | - |
| 1777771717 | 13.33° C | 57% | 1020 hPa | - | - | - | - |
| 1777770632 | 13.33° C | 58% | 1020 hPa | - | - | - | - |
| 1777769516 | 14.44° C | 55% | 1020 hPa | - | - | - | - |
| 1777768557 | 14.44° C | 55% | 1020 hPa | - | - | - | - |
| 1777767567 | 14.44° C | 55% | 1020 hPa | - | - | - | - |
| 1777765333 | 14.44° C | 56% | 1020 hPa | - | - | - | - |
| 1777764322 | 14.44° C | 56% | 1021 hPa | - | - | - | - |
| 1777763347 | 14.44° C | 57% | 1021 hPa | - | - | - | - |
| 1777762226 | 15° C | 56% | 1021 hPa | - | - | - | - |
| 1777761104 | 15° C | 55% | 1021 hPa | - | - | - | - |
| 1777760022 | 15.56° C | 53% | 1021 hPa | - | - | - | - |
| 1777759066 | 15.56° C | 52% | 1021 hPa | - | - | - | - |
| 1777758101 | 15.56° C | 52% | 1021 hPa | - | - | - | - |
| 1777757029 | 15.56° C | 52% | 1021 hPa | - | - | - | - |
| 1777755895 | 16.11° C | 52% | 1021 hPa | - | - | - | - |
* Rain since midnight (hover to see other rain measurements)
** Current wind speed in m/s (hover to see current wind gust speed)